sensor_id;sensor_type;location;lat;lon;timestamp;P1;durP1;ratioP1;P2;durP2;ratioP2
41446;SDS011;27185;52.040;4.490;2023-10-31T00:02:00;8.55;;;3.03;;
41446;SDS011;27185;52.040;4.490;2023-10-31T00:04:46;6.35;;;2.90;;
41446;SDS011;27185;52.040;4.490;2023-10-31T00:07:32;8.50;;;2.78;;
41446;SDS011;27185;52.040;4.490;2023-10-31T00:10:17;8.07;;;2.13;;
41446;SDS011;27185;52.040;4.490;2023-10-31T00:13:03;6.68;;;1.70;;
41446;SDS011;27185;52.040;4.490;2023-10-31T00:15:48;4.60;;;1.75;;
41446;SDS011;27185;52.040;4.490;2023-10-31T00:18:34;4.55;;;1.40;;
41446;SDS011;27185;52.040;4.490;2023-10-31T00:21:20;4.53;;;1.15;;
41446;SDS011;27185;52.040;4.490;2023-10-31T00:24:05;5.25;;;1.27;;
41446;SDS011;27185;52.040;4.490;2023-10-31T00:26:51;3.28;;;1.30;;
41446;SDS011;27185;52.040;4.490;2023-10-31T00:29:37;5.50;;;1.52;;
41446;SDS011;27185;52.040;4.490;2023-10-31T00:32:22;3.33;;;0.77;;
41446;SDS011;27185;52.040;4.490;2023-10-31T00:35:08;6.47;;;1.42;;
41446;SDS011;27185;52.040;4.490;2023-10-31T00:37:54;7.35;;;1.45;;
41446;SDS011;27185;52.040;4.490;2023-10-31T00:40:39;5.10;;;1.10;;
41446;SDS011;27185;52.040;4.490;2023-10-31T00:43:25;7.82;;;1.70;;
41446;SDS011;27185;52.040;4.490;2023-10-31T00:46:11;4.50;;;1.83;;
41446;SDS011;27185;52.040;4.490;2023-10-31T00:48:56;4.30;;;1.50;;
41446;SDS011;27185;52.040;4.490;2023-10-31T00:51:42;4.57;;;1.42;;
41446;SDS011;27185;52.040;4.490;2023-10-31T00:54:27;5.28;;;1.42;;
41446;SDS011;27185;52.040;4.490;2023-10-31T00:57:13;6.88;;;1.63;;
41446;SDS011;27185;52.040;4.490;2023-10-31T00:59:58;3.65;;;1.40;;
41446;SDS011;27185;52.040;4.490;2023-10-31T01:02:44;4.18;;;1.70;;
41446;SDS011;27185;52.040;4.490;2023-10-31T01:05:30;4.97;;;1.52;;
41446;SDS011;27185;52.040;4.490;2023-10-31T01:08:15;5.57;;;1.83;;
41446;SDS011;27185;52.040;4.490;2023-10-31T01:11:01;2.38;;;1.25;;
41446;SDS011;27185;52.040;4.490;2023-10-31T01:13:46;4.30;;;1.10;;
41446;SDS011;27185;52.040;4.490;2023-10-31T01:16:32;4.35;;;1.10;;
41446;SDS011;27185;52.040;4.490;2023-10-31T01:19:17;5.47;;;1.05;;
41446;SDS011;27185;52.040;4.490;2023-10-31T01:22:03;3.60;;;1.20;;
41446;SDS011;27185;52.040;4.490;2023-10-31T01:24:49;2.50;;;0.90;;
41446;SDS011;27185;52.040;4.490;2023-10-31T01:27:34;5.90;;;1.10;;
41446;SDS011;27185;52.040;4.490;2023-10-31T01:30:20;3.08;;;1.23;;
41446;SDS011;27185;52.040;4.490;2023-10-31T01:33:05;3.13;;;0.90;;
41446;SDS011;27185;52.040;4.490;2023-10-31T01:35:51;6.80;;;0.90;;
41446;SDS011;27185;52.040;4.490;2023-10-31T01:38:36;3.08;;;1.13;;
41446;SDS011;27185;52.040;4.490;2023-10-31T01:41:22;1.70;;;0.60;;
41446;SDS011;27185;52.040;4.490;2023-10-31T01:44:07;2.05;;;0.55;;
41446;SDS011;27185;52.040;4.490;2023-10-31T01:46:53;2.08;;;0.68;;
41446;SDS011;27185;52.040;4.490;2023-10-31T01:49:40;3.97;;;0.80;;
41446;SDS011;27185;52.040;4.490;2023-10-31T01:52:26;0.73;;;0.40;;
41446;SDS011;27185;52.040;4.490;2023-10-31T01:55:12;3.85;;;0.43;;
41446;SDS011;27185;52.040;4.490;2023-10-31T01:57:59;2.42;;;0.40;;
41446;SDS011;27185;52.040;4.490;2023-10-31T02:00:45;1.50;;;0.28;;
41446;SDS011;27185;52.040;4.490;2023-10-31T02:03:31;1.02;;;0.28;;
41446;SDS011;27185;52.040;4.490;2023-10-31T02:06:18;2.25;;;0.20;;
41446;SDS011;27185;52.040;4.490;2023-10-31T02:09:03;3.38;;;0.40;;
41446;SDS011;27185;52.040;4.490;2023-10-31T02:11:49;0.65;;;0.20;;
41446;SDS011;27185;52.040;4.490;2023-10-31T02:14:35;1.20;;;0.22;;
41446;SDS011;27185;52.040;4.490;2023-10-31T02:17:20;3.70;;;0.32;;
41446;SDS011;27185;52.040;4.490;2023-10-31T02:20:06;1.00;;;0.20;;
41446;SDS011;27185;52.040;4.490;2023-10-31T02:22:52;2.85;;;0.35;;
41446;SDS011;27185;52.040;4.490;2023-10-31T02:25:37;0.85;;;0.30;;
41446;SDS011;27185;52.040;4.490;2023-10-31T02:28:23;4.88;;;0.30;;
41446;SDS011;27185;52.040;4.490;2023-10-31T02:31:12;1.83;;;0.30;;
41446;SDS011;27185;52.040;4.490;2023-10-31T02:33:58;2.55;;;0.22;;
41446;SDS011;27185;52.040;4.490;2023-10-31T02:36:43;3.58;;;0.43;;
41446;SDS011;27185;52.040;4.490;2023-10-31T02:39:29;2.85;;;0.50;;
41446;SDS011;27185;52.040;4.490;2023-10-31T02:42:14;3.33;;;0.30;;
41446;SDS011;27185;52.040;4.490;2023-10-31T02:45:00;3.15;;;0.30;;
41446;SDS011;27185;52.040;4.490;2023-10-31T02:47:45;3.75;;;0.30;;
41446;SDS011;27185;52.040;4.490;2023-10-31T02:50:31;2.90;;;0.30;;
41446;SDS011;27185;52.040;4.490;2023-10-31T02:53:17;3.03;;;0.38;;
41446;SDS011;27185;52.040;4.490;2023-10-31T02:56:03;2.92;;;0.60;;
41446;SDS011;27185;52.040;4.490;2023-10-31T02:58:49;3.80;;;0.30;;
41446;SDS011;27185;52.040;4.490;2023-10-31T03:01:35;0.63;;;0.13;;
41446;SDS011;27185;52.040;4.490;2023-10-31T03:04:21;2.42;;;0.20;;
41446;SDS011;27185;52.040;4.490;2023-10-31T03:07:06;2.47;;;0.20;;
41446;SDS011;27185;52.040;4.490;2023-10-31T03:09:52;1.00;;;0.20;;
41446;SDS011;27185;52.040;4.490;2023-10-31T03:12:39;1.95;;;0.20;;
41446;SDS011;27185;52.040;4.490;2023-10-31T03:15:24;2.42;;;0.20;;
41446;SDS011;27185;52.040;4.490;2023-10-31T03:18:10;1.23;;;0.10;;
41446;SDS011;27185;52.040;4.490;2023-10-31T03:20:56;2.08;;;0.25;;
41446;SDS011;27185;52.040;4.490;2023-10-31T03:23:42;2.38;;;0.30;;
41446;SDS011;27185;52.040;4.490;2023-10-31T03:26:31;1.27;;;0.20;;
41446;SDS011;27185;52.040;4.490;2023-10-31T03:29:16;2.13;;;0.20;;
41446;SDS011;27185;52.040;4.490;2023-10-31T03:32:02;4.35;;;0.30;;
41446;SDS011;27185;52.040;4.490;2023-10-31T03:34:49;1.45;;;0.30;;
41446;SDS011;27185;52.040;4.490;2023-10-31T03:37:35;0.75;;;0.17;;
41446;SDS011;27185;52.040;4.490;2023-10-31T03:40:24;1.80;;;0.20;;
41446;SDS011;27185;52.040;4.490;2023-10-31T03:43:10;0.98;;;0.30;;
41446;SDS011;27185;52.040;4.490;2023-10-31T03:45:56;1.13;;;0.20;;
41446;SDS011;27185;52.040;4.490;2023-10-31T03:48:42;2.10;;;0.20;;
41446;SDS011;27185;52.040;4.490;2023-10-31T03:51:27;3.13;;;0.30;;
41446;SDS011;27185;52.040;4.490;2023-10-31T03:54:13;0.82;;;0.38;;
41446;SDS011;27185;52.040;4.490;2023-10-31T03:56:59;2.20;;;0.28;;
41446;SDS011;27185;52.040;4.490;2023-10-31T03:59:44;0.57;;;0.40;;
41446;SDS011;27185;52.040;4.490;2023-10-31T04:02:30;1.50;;;0.30;;
41446;SDS011;27185;52.040;4.490;2023-10-31T04:05:15;2.13;;;0.40;;
41446;SDS011;27185;52.040;4.490;2023-10-31T04:08:01;1.30;;;0.50;;
41446;SDS011;27185;52.040;4.490;2023-10-31T04:10:47;3.38;;;0.60;;
41446;SDS011;27185;52.040;4.490;2023-10-31T04:13:32;3.08;;;0.70;;
41446;SDS011;27185;52.040;4.490;2023-10-31T04:16:18;5.10;;;1.10;;
41446;SDS011;27185;52.040;4.490;2023-10-31T04:19:03;2.47;;;1.23;;
41446;SDS011;27185;52.040;4.490;2023-10-31T04:21:49;2.70;;;1.38;;
41446;SDS011;27185;52.040;4.490;2023-10-31T04:24:34;5.20;;;1.95;;
41446;SDS011;27185;52.040;4.490;2023-10-31T04:27:20;5.95;;;2.35;;
41446;SDS011;27185;52.040;4.490;2023-10-31T04:30:06;6.10;;;2.97;;
41446;SDS011;27185;52.040;4.490;2023-10-31T04:32:52;4.95;;;2.90;;
41446;SDS011;27185;52.040;4.490;2023-10-31T04:35:37;5.35;;;2.40;;
41446;SDS011;27185;52.040;4.490;2023-10-31T04:38:23;4.38;;;2.70;;
41446;SDS011;27185;52.040;4.490;2023-10-31T04:41:08;3.25;;;1.38;;
41446;SDS011;27185;52.040;4.490;2023-10-31T04:43:54;4.15;;;1.30;;
41446;SDS011;27185;52.040;4.490;2023-10-31T04:46:41;3.15;;;1.23;;
41446;SDS011;27185;52.040;4.490;2023-10-31T04:49:27;4.93;;;0.80;;
41446;SDS011;27185;52.040;4.490;2023-10-31T04:52:12;3.08;;;0.70;;
41446;SDS011;27185;52.040;4.490;2023-10-31T04:54:58;3.42;;;0.63;;
41446;SDS011;27185;52.040;4.490;2023-10-31T04:57:43;1.55;;;0.40;;
41446;SDS011;27185;52.040;4.490;2023-10-31T05:00:29;4.43;;;0.50;;
41446;SDS011;27185;52.040;4.490;2023-10-31T05:03:14;2.30;;;0.20;;
41446;SDS011;27185;52.040;4.490;2023-10-31T05:06:00;1.73;;;0.40;;
41446;SDS011;27185;52.040;4.490;2023-10-31T05:08:46;1.90;;;0.40;;
41446;SDS011;27185;52.040;4.490;2023-10-31T05:11:32;4.43;;;0.40;;
41446;SDS011;27185;52.040;4.490;2023-10-31T05:14:17;1.48;;;0.30;;
41446;SDS011;27185;52.040;4.490;2023-10-31T05:17:03;2.47;;;0.40;;
41446;SDS011;27185;52.040;4.490;2023-10-31T05:19:48;2.75;;;0.30;;
41446;SDS011;27185;52.040;4.490;2023-10-31T05:22:35;1.13;;;0.20;;
41446;SDS011;27185;52.040;4.490;2023-10-31T05:25:21;1.77;;;0.28;;
41446;SDS011;27185;52.040;4.490;2023-10-31T05:28:07;5.70;;;0.68;;
41446;SDS011;27185;52.040;4.490;2023-10-31T05:30:52;2.72;;;0.45;;
41446;SDS011;27185;52.040;4.490;2023-10-31T05:33:38;3.78;;;0.68;;
41446;SDS011;27185;52.040;4.490;2023-10-31T05:36:24;3.35;;;0.40;;
41446;SDS011;27185;52.040;4.490;2023-10-31T05:39:10;3.53;;;0.40;;
41446;SDS011;27185;52.040;4.490;2023-10-31T05:41:56;2.30;;;0.25;;
41446;SDS011;27185;52.040;4.490;2023-10-31T05:44:42;2.10;;;0.30;;
41446;SDS011;27185;52.040;4.490;2023-10-31T05:47:27;1.55;;;0.30;;
41446;SDS011;27185;52.040;4.490;2023-10-31T05:50:13;5.10;;;0.30;;
41446;SDS011;27185;52.040;4.490;2023-10-31T05:52:58;4.03;;;0.40;;
41446;SDS011;27185;52.040;4.490;2023-10-31T05:55:44;4.75;;;0.40;;
41446;SDS011;27185;52.040;4.490;2023-10-31T05:58:30;1.73;;;0.30;;
41446;SDS011;27185;52.040;4.490;2023-10-31T06:01:15;4.20;;;0.75;;
41446;SDS011;27185;52.040;4.490;2023-10-31T06:04:01;1.98;;;0.40;;
41446;SDS011;27185;52.040;4.490;2023-10-31T06:06:47;2.65;;;0.30;;
41446;SDS011;27185;52.040;4.490;2023-10-31T06:09:32;1.60;;;0.30;;
41446;SDS011;27185;52.040;4.490;2023-10-31T06:12:18;4.95;;;0.85;;
41446;SDS011;27185;52.040;4.490;2023-10-31T06:15:04;1.95;;;0.50;;
41446;SDS011;27185;52.040;4.490;2023-10-31T06:17:50;4.03;;;0.30;;
41446;SDS011;27185;52.040;4.490;2023-10-31T06:20:35;3.05;;;0.40;;
41446;SDS011;27185;52.040;4.490;2023-10-31T06:23:21;2.03;;;0.40;;
41446;SDS011;27185;52.040;4.490;2023-10-31T06:26:06;1.45;;;0.40;;
41446;SDS011;27185;52.040;4.490;2023-10-31T06:28:52;3.08;;;0.50;;
41446;SDS011;27185;52.040;4.490;2023-10-31T06:31:37;3.88;;;0.55;;
41446;SDS011;27185;52.040;4.490;2023-10-31T06:34:23;3.15;;;0.70;;
41446;SDS011;27185;52.040;4.490;2023-10-31T06:37:09;4.07;;;1.20;;
41446;SDS011;27185;52.040;4.490;2023-10-31T06:39:54;6.47;;;1.20;;
41446;SDS011;27185;52.040;4.490;2023-10-31T06:42:40;5.00;;;1.95;;
41446;SDS011;27185;52.040;4.490;2023-10-31T06:45:25;7.85;;;2.85;;
41446;SDS011;27185;52.040;4.490;2023-10-31T06:48:11;6.13;;;2.72;;
41446;SDS011;27185;52.040;4.490;2023-10-31T06:50:56;5.82;;;2.20;;
41446;SDS011;27185;52.040;4.490;2023-10-31T06:53:42;5.20;;;1.90;;
41446;SDS011;27185;52.040;4.490;2023-10-31T06:56:27;7.20;;;2.95;;
41446;SDS011;27185;52.040;4.490;2023-10-31T06:59:13;6.20;;;2.90;;
41446;SDS011;27185;52.040;4.490;2023-10-31T07:01:59;5.38;;;2.60;;
41446;SDS011;27185;52.040;4.490;2023-10-31T07:04:45;8.35;;;3.63;;
41446;SDS011;27185;52.040;4.490;2023-10-31T07:07:30;5.65;;;3.00;;
41446;SDS011;27185;52.040;4.490;2023-10-31T07:10:16;6.53;;;2.97;;
41446;SDS011;27185;52.040;4.490;2023-10-31T07:13:01;3.85;;;2.28;;
41446;SDS011;27185;52.040;4.490;2023-10-31T07:15:47;5.85;;;2.00;;
41446;SDS011;27185;52.040;4.490;2023-10-31T07:18:33;6.55;;;3.17;;
41446;SDS011;27185;52.040;4.490;2023-10-31T07:21:18;8.00;;;2.53;;
41446;SDS011;27185;52.040;4.490;2023-10-31T07:24:04;5.80;;;2.40;;
41446;SDS011;27185;52.040;4.490;2023-10-31T07:26:50;5.78;;;2.00;;
41446;SDS011;27185;52.040;4.490;2023-10-31T07:29:38;3.15;;;1.42;;
41446;SDS011;27185;52.040;4.490;2023-10-31T07:32:25;5.18;;;1.70;;
41446;SDS011;27185;52.040;4.490;2023-10-31T07:35:11;7.38;;;2.17;;
41446;SDS011;27185;52.040;4.490;2023-10-31T07:37:56;10.85;;;2.95;;
41446;SDS011;27185;52.040;4.490;2023-10-31T07:40:42;7.20;;;3.15;;
41446;SDS011;27185;52.040;4.490;2023-10-31T07:43:27;6.70;;;2.80;;
41446;SDS011;27185;52.040;4.490;2023-10-31T07:46:13;9.73;;;3.53;;
41446;SDS011;27185;52.040;4.490;2023-10-31T07:48:58;9.68;;;3.80;;
41446;SDS011;27185;52.040;4.490;2023-10-31T07:51:44;7.95;;;3.70;;
41446;SDS011;27185;52.040;4.490;2023-10-31T07:54:30;8.13;;;3.83;;
41446;SDS011;27185;52.040;4.490;2023-10-31T07:57:16;7.30;;;4.40;;
41446;SDS011;27185;52.040;4.490;2023-10-31T08:00:01;15.20;;;5.53;;
41446;SDS011;27185;52.040;4.490;2023-10-31T08:02:47;9.65;;;5.53;;
41446;SDS011;27185;52.040;4.490;2023-10-31T08:05:33;8.05;;;5.40;;
41446;SDS011;27185;52.040;4.490;2023-10-31T08:08:19;12.35;;;6.03;;
41446;SDS011;27185;52.040;4.490;2023-10-31T08:11:07;11.63;;;5.20;;
41446;SDS011;27185;52.040;4.490;2023-10-31T08:13:53;8.73;;;4.72;;
41446;SDS011;27185;52.040;4.490;2023-10-31T08:16:38;12.85;;;5.20;;
41446;SDS011;27185;52.040;4.490;2023-10-31T08:19:24;13.50;;;5.50;;
41446;SDS011;27185;52.040;4.490;2023-10-31T08:22:09;12.85;;;6.70;;
41446;SDS011;27185;52.040;4.490;2023-10-31T08:24:55;8.95;;;5.97;;
41446;SDS011;27185;52.040;4.490;2023-10-31T08:27:41;12.82;;;6.22;;
41446;SDS011;27185;52.040;4.490;2023-10-31T08:30:26;12.18;;;6.43;;
41446;SDS011;27185;52.040;4.490;2023-10-31T08:33:12;14.88;;;6.63;;
41446;SDS011;27185;52.040;4.490;2023-10-31T08:35:58;11.43;;;5.25;;
41446;SDS011;27185;52.040;4.490;2023-10-31T08:38:44;11.68;;;5.60;;
41446;SDS011;27185;52.040;4.490;2023-10-31T08:41:30;10.25;;;5.32;;
41446;SDS011;27185;52.040;4.490;2023-10-31T08:44:15;13.00;;;6.60;;
41446;SDS011;27185;52.040;4.490;2023-10-31T08:47:01;12.07;;;5.70;;
41446;SDS011;27185;52.040;4.490;2023-10-31T08:49:46;15.00;;;5.40;;
41446;SDS011;27185;52.040;4.490;2023-10-31T08:52:32;9.82;;;5.18;;
41446;SDS011;27185;52.040;4.490;2023-10-31T08:55:18;12.82;;;5.97;;
41446;SDS011;27185;52.040;4.490;2023-10-31T08:58:03;11.75;;;5.85;;
41446;SDS011;27185;52.040;4.490;2023-10-31T09:00:49;18.48;;;6.45;;
41446;SDS011;27185;52.040;4.490;2023-10-31T09:03:35;9.35;;;5.35;;
41446;SDS011;27185;52.040;4.490;2023-10-31T09:06:20;8.85;;;4.95;;
41446;SDS011;27185;52.040;4.490;2023-10-31T09:09:06;12.55;;;5.03;;
41446;SDS011;27185;52.040;4.490;2023-10-31T09:11:52;10.13;;;4.45;;
41446;SDS011;27185;52.040;4.490;2023-10-31T09:14:38;9.88;;;4.15;;
41446;SDS011;27185;52.040;4.490;2023-10-31T09:17:23;7.10;;;3.47;;
41446;SDS011;27185;52.040;4.490;2023-10-31T09:20:09;6.68;;;2.47;;
41446;SDS011;27185;52.040;4.490;2023-10-31T09:22:56;7.15;;;2.33;;
41446;SDS011;27185;52.040;4.490;2023-10-31T09:25:41;6.00;;;2.97;;
41446;SDS011;27185;52.040;4.490;2023-10-31T09:28:27;5.20;;;2.45;;
41446;SDS011;27185;52.040;4.490;2023-10-31T09:31:13;7.50;;;2.25;;
41446;SDS011;27185;52.040;4.490;2023-10-31T09:33:58;6.22;;;2.20;;
41446;SDS011;27185;52.040;4.490;2023-10-31T09:36:44;6.75;;;2.10;;
41446;SDS011;27185;52.040;4.490;2023-10-31T09:39:30;7.00;;;1.58;;
41446;SDS011;27185;52.040;4.490;2023-10-31T09:42:15;7.45;;;1.40;;
41446;SDS011;27185;52.040;4.490;2023-10-31T09:45:01;7.47;;;1.48;;
41446;SDS011;27185;52.040;4.490;2023-10-31T09:47:47;7.75;;;1.83;;
41446;SDS011;27185;52.040;4.490;2023-10-31T09:50:32;6.38;;;1.08;;
41446;SDS011;27185;52.040;4.490;2023-10-31T09:53:19;9.65;;;1.42;;
41446;SDS011;27185;52.040;4.490;2023-10-31T09:56:05;7.32;;;1.15;;
41446;SDS011;27185;52.040;4.490;2023-10-31T09:58:52;7.22;;;1.75;;
41446;SDS011;27185;52.040;4.490;2023-10-31T10:01:37;10.68;;;1.23;;
41446;SDS011;27185;52.040;4.490;2023-10-31T10:04:23;7.03;;;1.40;;
41446;SDS011;27185;52.040;4.490;2023-10-31T10:07:12;7.90;;;1.90;;
41446;SDS011;27185;52.040;4.490;2023-10-31T10:10:01;8.75;;;1.80;;
41446;SDS011;27185;52.040;4.490;2023-10-31T10:12:47;13.18;;;2.00;;
41446;SDS011;27185;52.040;4.490;2023-10-31T10:15:51;12.05;;;2.83;;
41446;SDS011;27185;52.040;4.490;2023-10-31T10:18:40;9.30;;;3.00;;
41446;SDS011;27185;52.040;4.490;2023-10-31T10:21:25;14.52;;;3.70;;
41446;SDS011;27185;52.040;4.490;2023-10-31T10:24:11;13.55;;;3.67;;
41446;SDS011;27185;52.040;4.490;2023-10-31T10:26:56;12.82;;;4.53;;
41446;SDS011;27185;52.040;4.490;2023-10-31T10:29:42;9.95;;;4.03;;
41446;SDS011;27185;52.040;4.490;2023-10-31T10:32:29;13.57;;;4.68;;
41446;SDS011;27185;52.040;4.490;2023-10-31T10:35:15;13.77;;;4.90;;
41446;SDS011;27185;52.040;4.490;2023-10-31T10:38:01;13.23;;;4.28;;
41446;SDS011;27185;52.040;4.490;2023-10-31T10:40:50;14.77;;;3.88;;
41446;SDS011;27185;52.040;4.490;2023-10-31T10:43:40;12.32;;;3.63;;
41446;SDS011;27185;52.040;4.490;2023-10-31T10:46:26;13.73;;;3.55;;
41446;SDS011;27185;52.040;4.490;2023-10-31T10:49:15;12.35;;;2.97;;
41446;SDS011;27185;52.040;4.490;2023-10-31T10:52:09;15.30;;;3.05;;
41446;SDS011;27185;52.040;4.490;2023-10-31T10:55:12;7.25;;;2.47;;
41446;SDS011;27185;52.040;4.490;2023-10-31T10:58:05;9.27;;;2.42;;
41446;SDS011;27185;52.040;4.490;2023-10-31T11:01:05;8.93;;;2.67;;
41446;SDS011;27185;52.040;4.490;2023-10-31T11:03:53;8.23;;;3.03;;
41446;SDS011;27185;52.040;4.490;2023-10-31T11:06:41;13.93;;;3.25;;
41446;SDS011;27185;52.040;4.490;2023-10-31T11:09:28;13.60;;;2.78;;
41446;SDS011;27185;52.040;4.490;2023-10-31T11:12:16;9.13;;;3.28;;
41446;SDS011;27185;52.040;4.490;2023-10-31T11:15:04;10.25;;;2.90;;
41446;SDS011;27185;52.040;4.490;2023-10-31T11:17:53;25.40;;;14.45;;
41446;SDS011;27185;52.040;4.490;2023-10-31T11:20:40;25.27;;;18.58;;
41446;SDS011;27185;52.040;4.490;2023-10-31T11:23:27;26.70;;;20.38;;
41446;SDS011;27185;52.040;4.490;2023-10-31T11:26:13;27.50;;;19.95;;
41446;SDS011;27185;52.040;4.490;2023-10-31T11:29:05;25.50;;;20.50;;
41446;SDS011;27185;52.040;4.490;2023-10-31T11:31:53;30.92;;;21.52;;
41446;SDS011;27185;52.040;4.490;2023-10-31T11:34:39;27.50;;;20.85;;
41446;SDS011;27185;52.040;4.490;2023-10-31T11:37:31;26.40;;;18.90;;
41446;SDS011;27185;52.040;4.490;2023-10-31T11:40:20;24.63;;;16.67;;
41446;SDS011;27185;52.040;4.490;2023-10-31T11:43:07;29.30;;;16.58;;
41446;SDS011;27185;52.040;4.490;2023-10-31T11:45:53;25.05;;;17.67;;
41446;SDS011;27185;52.040;4.490;2023-10-31T11:48:45;25.13;;;17.33;;
41446;SDS011;27185;52.040;4.490;2023-10-31T11:51:32;23.83;;;16.50;;
41446;SDS011;27185;52.040;4.490;2023-10-31T11:54:18;23.83;;;18.33;;
41446;SDS011;27185;52.040;4.490;2023-10-31T11:57:03;24.98;;;17.67;;
41446;SDS011;27185;52.040;4.490;2023-10-31T11:59:49;20.50;;;15.98;;
41446;SDS011;27185;52.040;4.490;2023-10-31T12:02:35;22.73;;;17.05;;
41446;SDS011;27185;52.040;4.490;2023-10-31T12:05:20;19.48;;;15.68;;
41446;SDS011;27185;52.040;4.490;2023-10-31T12:08:06;25.08;;;17.17;;
41446;SDS011;27185;52.040;4.490;2023-10-31T12:10:51;25.10;;;17.40;;
41446;SDS011;27185;52.040;4.490;2023-10-31T12:13:40;22.70;;;17.48;;
41446;SDS011;27185;52.040;4.490;2023-10-31T12:16:38;22.45;;;17.13;;
41446;SDS011;27185;52.040;4.490;2023-10-31T12:19:24;20.02;;;15.45;;
41446;SDS011;27185;52.040;4.490;2023-10-31T12:22:13;20.15;;;16.48;;
41446;SDS011;27185;52.040;4.490;2023-10-31T12:25:00;19.58;;;15.65;;
41446;SDS011;27185;52.040;4.490;2023-10-31T12:27:49;23.00;;;18.00;;
41446;SDS011;27185;52.040;4.490;2023-10-31T12:30:36;28.17;;;20.42;;
41446;SDS011;27185;52.040;4.490;2023-10-31T12:33:33;30.45;;;20.85;;
41446;SDS011;27185;52.040;4.490;2023-10-31T12:36:19;28.25;;;20.17;;
41446;SDS011;27185;52.040;4.490;2023-10-31T12:39:05;30.63;;;22.05;;
41446;SDS011;27185;52.040;4.490;2023-10-31T12:41:54;32.72;;;21.35;;
41446;SDS011;27185;52.040;4.490;2023-10-31T12:44:41;28.63;;;21.45;;
41446;SDS011;27185;52.040;4.490;2023-10-31T12:47:27;32.92;;;22.35;;
41446;SDS011;27185;52.040;4.490;2023-10-31T12:50:14;26.60;;;20.48;;
41446;SDS011;27185;52.040;4.490;2023-10-31T12:55:48;31.70;;;22.13;;
41446;SDS011;27185;52.040;4.490;2023-10-31T12:58:35;29.45;;;20.88;;
41446;SDS011;27185;52.040;4.490;2023-10-31T13:01:21;27.83;;;21.58;;
41446;SDS011;27185;52.040;4.490;2023-10-31T13:04:06;27.92;;;20.13;;
41446;SDS011;27185;52.040;4.490;2023-10-31T13:06:59;25.17;;;19.58;;
41446;SDS011;27185;52.040;4.490;2023-10-31T13:09:48;24.58;;;19.95;;
41446;SDS011;27185;52.040;4.490;2023-10-31T13:12:33;29.05;;;22.35;;
41446;SDS011;27185;52.040;4.490;2023-10-31T13:15:20;27.45;;;22.70;;
41446;SDS011;27185;52.040;4.490;2023-10-31T13:18:07;32.15;;;23.67;;
41446;SDS011;27185;52.040;4.490;2023-10-31T13:20:56;27.38;;;22.25;;
41446;SDS011;27185;52.040;4.490;2023-10-31T13:23:41;31.10;;;22.15;;
41446;SDS011;27185;52.040;4.490;2023-10-31T13:26:30;28.15;;;22.48;;
41446;SDS011;27185;52.040;4.490;2023-10-31T13:29:15;28.85;;;23.85;;
41446;SDS011;27185;52.040;4.490;2023-10-31T13:32:01;30.75;;;23.27;;
41446;SDS011;27185;52.040;4.490;2023-10-31T13:34:48;30.83;;;22.42;;
41446;SDS011;27185;52.040;4.490;2023-10-31T13:37:33;26.75;;;20.70;;
41446;SDS011;27185;52.040;4.490;2023-10-31T13:40:19;25.45;;;20.00;;
41446;SDS011;27185;52.040;4.490;2023-10-31T13:43:05;25.10;;;20.10;;
41446;SDS011;27185;52.040;4.490;2023-10-31T13:45:51;24.73;;;20.55;;
41446;SDS011;27185;52.040;4.490;2023-10-31T13:48:37;20.95;;;17.38;;
41446;SDS011;27185;52.040;4.490;2023-10-31T13:51:22;21.80;;;17.92;;
41446;SDS011;27185;52.040;4.490;2023-10-31T13:54:08;21.83;;;18.23;;
41446;SDS011;27185;52.040;4.490;2023-10-31T13:56:54;23.70;;;18.75;;
41446;SDS011;27185;52.040;4.490;2023-10-31T13:59:40;38.88;;;29.20;;
41446;SDS011;27185;52.040;4.490;2023-10-31T14:02:26;43.08;;;32.80;;
41446;SDS011;27185;52.040;4.490;2023-10-31T14:05:13;45.90;;;33.78;;
41446;SDS011;27185;52.040;4.490;2023-10-31T14:07:59;41.67;;;32.15;;
41446;SDS011;27185;52.040;4.490;2023-10-31T14:10:44;38.92;;;32.22;;
41446;SDS011;27185;52.040;4.490;2023-10-31T14:13:30;37.85;;;30.30;;
41446;SDS011;27185;52.040;4.490;2023-10-31T14:16:16;39.53;;;30.17;;
41446;SDS011;27185;52.040;4.490;2023-10-31T14:19:02;41.38;;;31.90;;
41446;SDS011;27185;52.040;4.490;2023-10-31T14:21:47;39.00;;;29.92;;
41446;SDS011;27185;52.040;4.490;2023-10-31T14:24:34;34.75;;;28.30;;
41446;SDS011;27185;52.040;4.490;2023-10-31T14:27:20;40.83;;;31.73;;
41446;SDS011;27185;52.040;4.490;2023-10-31T14:30:05;37.88;;;29.65;;
41446;SDS011;27185;52.040;4.490;2023-10-31T14:32:52;39.65;;;29.58;;
41446;SDS011;27185;52.040;4.490;2023-10-31T14:35:38;37.75;;;28.85;;
41446;SDS011;27185;52.040;4.490;2023-10-31T14:38:23;39.33;;;28.55;;
41446;SDS011;27185;52.040;4.490;2023-10-31T14:41:09;33.58;;;25.48;;
41446;SDS011;27185;52.040;4.490;2023-10-31T14:43:55;31.75;;;24.10;;
41446;SDS011;27185;52.040;4.490;2023-10-31T14:46:40;26.50;;;20.73;;
41446;SDS011;27185;52.040;4.490;2023-10-31T14:49:26;24.25;;;18.85;;
41446;SDS011;27185;52.040;4.490;2023-10-31T14:52:11;19.85;;;15.95;;
41446;SDS011;27185;52.040;4.490;2023-10-31T14:54:58;19.73;;;16.63;;
41446;SDS011;27185;52.040;4.490;2023-10-31T14:57:44;19.42;;;14.85;;
41446;SDS011;27185;52.040;4.490;2023-10-31T15:00:29;17.75;;;14.95;;
41446;SDS011;27185;52.040;4.490;2023-10-31T15:03:15;19.67;;;15.55;;
41446;SDS011;27185;52.040;4.490;2023-10-31T15:06:01;21.73;;;15.98;;
41446;SDS011;27185;52.040;4.490;2023-10-31T15:08:47;19.95;;;16.05;;
41446;SDS011;27185;52.040;4.490;2023-10-31T15:11:33;24.73;;;15.48;;
41446;SDS011;27185;52.040;4.490;2023-10-31T15:14:18;17.88;;;14.15;;
41446;SDS011;27185;52.040;4.490;2023-10-31T15:17:04;18.98;;;13.18;;
41446;SDS011;27185;52.040;4.490;2023-10-31T15:19:49;15.20;;;11.48;;
41446;SDS011;27185;52.040;4.490;2023-10-31T15:22:35;15.82;;;11.93;;
41446;SDS011;27185;52.040;4.490;2023-10-31T15:25:21;19.58;;;13.95;;
41446;SDS011;27185;52.040;4.490;2023-10-31T15:28:07;16.05;;;11.00;;
41446;SDS011;27185;52.040;4.490;2023-10-31T15:30:52;15.30;;;11.07;;
41446;SDS011;27185;52.040;4.490;2023-10-31T15:33:38;14.00;;;10.88;;
41446;SDS011;27185;52.040;4.490;2023-10-31T15:36:25;14.98;;;10.10;;
41446;SDS011;27185;52.040;4.490;2023-10-31T15:39:12;13.60;;;10.80;;
41446;SDS011;27185;52.040;4.490;2023-10-31T15:41:58;13.98;;;10.60;;
41446;SDS011;27185;52.040;4.490;2023-10-31T15:44:44;15.00;;;11.68;;
41446;SDS011;27185;52.040;4.490;2023-10-31T15:47:29;14.63;;;11.00;;
41446;SDS011;27185;52.040;4.490;2023-10-31T15:50:15;14.10;;;11.40;;
41446;SDS011;27185;52.040;4.490;2023-10-31T15:53:00;12.70;;;10.05;;
41446;SDS011;27185;52.040;4.490;2023-10-31T15:55:46;14.18;;;10.43;;
41446;SDS011;27185;52.040;4.490;2023-10-31T15:58:32;13.57;;;11.00;;
41446;SDS011;27185;52.040;4.490;2023-10-31T16:01:17;13.38;;;11.85;;
41446;SDS011;27185;52.040;4.490;2023-10-31T16:04:03;18.95;;;11.45;;
41446;SDS011;27185;52.040;4.490;2023-10-31T16:06:49;17.77;;;13.40;;
41446;SDS011;27185;52.040;4.490;2023-10-31T16:09:35;16.35;;;12.35;;
41446;SDS011;27185;52.040;4.490;2023-10-31T16:12:21;13.88;;;11.48;;
41446;SDS011;27185;52.040;4.490;2023-10-31T16:15:07;14.68;;;9.98;;
41446;SDS011;27185;52.040;4.490;2023-10-31T16:17:53;12.70;;;9.38;;
41446;SDS011;27185;52.040;4.490;2023-10-31T16:20:40;12.77;;;9.32;;
41446;SDS011;27185;52.040;4.490;2023-10-31T16:23:27;15.27;;;9.07;;
41446;SDS011;27185;52.040;4.490;2023-10-31T16:26:13;16.23;;;9.75;;
41446;SDS011;27185;52.040;4.490;2023-10-31T16:29:00;12.43;;;9.45;;
41446;SDS011;27185;52.040;4.490;2023-10-31T16:31:45;12.75;;;9.88;;
41446;SDS011;27185;52.040;4.490;2023-10-31T16:34:31;14.30;;;9.68;;